Time;durP1;ratioP1;P1;durP2;ratioP2;P2;SDS_P1;SDS_P2;PMS_P1;PMS_P2;Temp;Humidity;BMP_temperature;BMP_pressure;BME280_temperature;BME280_humidity;BME280_pressure;Samples;Min_cycle;Max_cycle;Signal;HPM_P1;HPM_P2
2023/09/19 00:01:45;;;;;;;13.70;10.50;;;;;;;21.09;42.53;99660.94;109646;1251;60152;-53
2023/09/19 00:04:12;;;;;;;14.40;11.00;;;;;;;20.98;42.80;99659.34;109772;1250;73588;-53
2023/09/19 00:06:39;;;;;;;17.10;10.90;;;;;;;20.89;43.03;99657.86;109735;1250;68562;-54
2023/09/19 00:09:10;;;;;;;14.60;10.20;;;;;;;20.99;42.90;99667.64;109749;1251;71531;-54
2023/09/19 00:11:41;;;;;;;14.70;11.10;;;;;;;21.11;42.68;99667.31;109453;1251;60965;-54
2023/09/19 00:14:08;;;;;;;15.70;10.60;;;;;;;21.13;42.51;99663.17;109565;1252;60082;-53
2023/09/19 00:16:36;;;;;;;14.90;11.10;;;;;;;21.18;42.40;99664.59;109623;1253;74481;-53
2023/09/19 00:19:03;;;;;;;17.30;10.10;;;;;;;21.10;42.53;99664.95;109554;1252;68733;-54
2023/09/19 00:21:31;;;;;;;14.10;11.00;;;;;;;21.03;42.66;99661.86;109608;1253;72809;-53
2023/09/19 00:23:58;;;;;;;14.30;11.50;;;;;;;20.97;42.88;99660.16;109319;1251;61757;-54
2023/09/19 00:26:25;;;;;;;16.80;11.50;;;;;;;20.96;43.01;99661.96;109701;1251;58879;-53
2023/09/19 00:28:55;;;;;;;18.50;11.20;;;;;;;20.97;43.00;99654.06;109725;1251;74695;-55
2023/09/19 00:31:25;;;;;;;15.90;11.20;;;;;;;21.06;42.80;99655.56;109736;1251;67192;-54
2023/09/19 00:33:53;;;;;;;15.40;11.80;;;;;;;21.08;42.81;99652.35;109720;1250;72369;-54
2023/09/19 00:36:19;;;;;;;13.50;10.80;;;;;;;21.11;42.74;99652.26;109672;1251;60634;-54
2023/09/19 00:38:47;;;;;;;22.20;10.90;;;;;;;21.16;42.73;99655.62;109743;1250;60299;-54
2023/09/19 00:41:13;;;;;;;16.90;11.60;;;;;;;21.15;42.65;99654.80;109428;1251;74404;-53
2023/09/19 00:43:40;;;;;;;14.70;10.90;;;;;;;21.17;42.66;99652.71;109690;1251;68882;-54
2023/09/19 00:46:07;;;;;;;13.10;10.70;;;;;;;21.14;42.62;99655.59;109723;1251;72495;-56
2023/09/19 00:48:39;;;;;;;18.00;11.00;;;;;;;21.03;42.89;99654.32;109633;1251;60709;-54
2023/09/19 00:51:06;;;;;;;15.80;10.80;;;;;;;21.05;42.94;99652.45;109649;1251;59025;-54
2023/09/19 00:53:34;;;;;;;14.90;10.90;;;;;;;21.08;42.88;99649.41;109713;1251;74469;-54
2023/09/19 00:56:00;;;;;;;19.00;12.40;;;;;;;21.09;42.81;99649.27;109296;1250;66474;-54
2023/09/19 00:58:32;;;;;;;17.80;10.40;;;;;;;21.01;43.02;99646.84;109681;1251;71085;-55
2023/09/19 01:00:59;;;;;;;16.60;11.80;;;;;;;21.00;43.16;99645.67;109671;1251;61689;-54
2023/09/19 01:03:25;;;;;;;16.10;10.70;;;;;;;21.00;43.12;99643.05;109715;1251;59979;-54
2023/09/19 01:05:52;;;;;;;18.10;10.60;;;;;;;21.01;43.14;99639.88;109705;1250;75102;-54
2023/09/19 01:08:19;;;;;;;13.90;10.20;;;;;;;20.92;43.36;99636.53;109468;1251;68560;-52
2023/09/19 01:10:52;;;;;;;18.50;10.30;;;;;;;20.97;43.26;99641.26;109457;1251;71467;-53
2023/09/19 01:13:23;;;;;;;14.00;11.30;;;;;;;20.99;43.15;99638.95;109595;1254;60848;-54
2023/09/19 01:16:36;;;;;;;15.40;11.20;;;;;;;20.97;43.12;99638.40;109534;1253;58933;-52
2023/09/19 01:19:50;;;;;;;15.60;10.60;;;;;;;20.92;43.37;99631.78;108423;1263;74539;-52
2023/09/19 01:22:33;;;;;;;15.60;10.20;;;;;;;20.83;43.55;99629.23;107813;1270;67569;-53
2023/09/19 01:25:18;;;;;;;16.20;11.10;;;;;;;20.72;43.69;99627.75;108133;1272;72551;-54
2023/09/19 01:28:23;;;;;;;15.30;10.60;;;;;;;20.61;43.99;99622.80;108169;1270;61912;-53
2023/09/19 01:30:54;;;;;;;14.20;11.00;;;;;;;20.47;44.18;99617.45;107636;1277;59293;-53
2023/09/19 01:33:21;;;;;;;16.70;10.80;;;;;;;20.43;44.34;99616.33;107534;1276;74835;-53
2023/09/19 01:35:50;;;;;;;;;;;;;;;20.47;44.33;99615.60;107710;1276;68516;-53
2023/09/19 01:38:19;;;;;;;23.20;11.10;;;;;;;20.42;44.71;99614.31;107518;1276;72664;-53
2023/09/19 01:41:04;;;;;;;16.10;11.10;;;;;;;20.20;45.20;99611.43;107646;1276;61894;-52
2023/09/19 01:43:33;;;;;;;15.30;10.50;;;;;;;19.96;45.90;99611.18;107493;1276;60050;-52
2023/09/19 01:46:13;;;;;;;17.70;11.20;;;;;;;20.05;45.76;99609.36;107419;1280;74682;-53
2023/09/19 01:49:32;;;;;;;19.00;11.00;;;;;;;19.93;46.06;99604.83;107383;1277;68628;-53
2023/09/19 01:52:19;;;;;;;13.70;9.70;;;;;;;20.03;45.79;99604.30;106867;1285;72548;-54
2023/09/19 01:54:50;;;;;;;17.80;12.00;;;;;;;19.90;46.22;99599.73;106865;1283;62036;-53
2023/09/19 01:57:30;;;;;;;16.60;11.30;;;;;;;19.92;46.30;99598.77;107947;1273;59081;-53
2023/09/19 02:00:06;;;;;;;23.80;11.60;;;;;;;19.95;46.50;99598.69;108355;1268;74535;-53
2023/09/19 02:02:40;;;;;;;21.60;12.00;;;;;;;19.84;46.74;99596.05;108131;1268;68668;-53
2023/09/19 02:05:07;;;;;;;23.90;12.30;;;;;;;19.92;46.89;99598.33;108126;1269;71629;-54
2023/09/19 02:07:37;;;;;;;19.40;12.10;;;;;;;19.91;46.93;99591.17;108320;1264;60598;-54
2023/09/19 02:10:05;;;;;;;31.30;13.00;;;;;;;19.75;47.49;99589.48;108530;1268;59021;-55
2023/09/19 02:12:33;;;;;;;22.40;12.00;;;;;;;19.73;47.79;99585.55;108782;1262;74929;-54
2023/09/19 02:15:03;;;;;;;17.30;10.70;;;;;;;19.68;47.95;99582.75;108792;1262;68801;-54
2023/09/19 02:17:31;;;;;;;21.70;12.50;;;;;;;19.76;47.87;99579.42;108791;1260;71519;-54
2023/09/19 02:19:58;;;;;;;15.00;11.30;;;;;;;19.74;48.02;99580.73;108996;1260;60545;-55
2023/09/19 02:22:25;;;;;;;17.80;12.30;;;;;;;19.68;48.43;99579.30;109260;1251;60153;-54
2023/09/19 02:24:53;;;;;;;16.40;11.60;;;;;;;19.56;48.83;99571.10;109411;1253;73224;-54
2023/09/19 02:27:20;;;;;;;16.70;12.10;;;;;;;19.62;48.78;99569.65;109569;1252;66124;-54
2023/09/19 02:29:47;;;;;;;16.80;11.80;;;;;;;19.66;48.91;99566.34;109240;1254;72803;-54
2023/09/19 02:32:14;;;;;;;17.70;12.10;;;;;;;19.50;49.48;99558.35;109544;1253;60498;-54
2023/09/19 02:34:41;;;;;;;16.90;12.00;;;;;;;19.59;49.30;99561.35;109556;1253;60105;-54
2023/09/19 02:37:08;;;;;;;17.60;12.00;;;;;;;19.54;49.50;99557.99;109576;1252;74568;-54
2023/09/19 02:39:35;;;;;;;15.70;12.00;;;;;;;19.51;49.60;99557.23;109303;1254;67171;-54
2023/09/19 02:42:03;;;;;;;25.10;13.10;;;;;;;19.49;49.89;99553.17;109527;1253;71707;-54
2023/09/19 02:44:30;;;;;;;20.00;12.70;;;;;;;19.41;50.18;99549.95;109542;1252;61941;-54
2023/09/19 02:46:57;;;;;;;17.60;12.30;;;;;;;19.21;50.88;99544.32;109606;1253;59150;-54
2023/09/19 02:49:24;;;;;;;21.60;12.30;;;;;;;19.24;50.91;99539.17;109588;1254;74527;-59
2023/09/19 02:51:51;;;;;;;22.50;11.90;;;;;;;19.28;50.78;99538.59;109576;1252;67202;-54
2023/09/19 02:54:19;;;;;;;25.90;13.20;;;;;;;19.35;50.61;99536.29;109557;1253;70520;-54
2023/09/19 02:56:47;;;;;;;19.00;12.80;;;;;;;19.40;50.51;99540.60;109143;1251;61712;-54
2023/09/19 02:59:14;;;;;;;17.20;11.50;;;;;;;19.43;50.52;99539.98;109533;1254;59974;-54
2023/09/19 03:01:43;;;;;;;16.30;12.10;;;;;;;19.44;50.33;99540.08;109592;1252;74474;-54
2023/09/19 03:04:11;;;;;;;18.20;12.60;;;;;;;19.30;50.85;99534.13;109553;1254;68631;-54
2023/09/19 03:06:41;;;;;;;21.50;12.40;;;;;;;19.37;50.58;99532.65;109096;1254;71741;-54
2023/09/19 03:09:11;;;;;;;20.00;12.30;;;;;;;19.32;50.89;99531.62;109254;1254;60890;-54
2023/09/19 03:11:39;;;;;;;22.20;11.90;;;;;;;19.27;51.12;99531.31;109504;1253;59126;-54
2023/09/19 03:14:06;;;;;;;18.80;11.60;;;;;;;19.30;51.14;99533.26;109513;1254;74530;-54
2023/09/19 03:16:34;;;;;;;13.50;11.40;;;;;;;19.25;51.47;99534.23;109577;1253;67475;-54
2023/09/19 03:19:01;;;;;;;16.90;12.80;;;;;;;19.27;51.62;99531.48;109497;1254;72416;-55
2023/09/19 03:21:30;;;;;;;17.50;12.40;;;;;;;19.24;51.75;99529.27;109559;1251;61661;-55
2023/09/19 03:23:57;;;;;;;19.50;12.10;;;;;;;19.28;51.95;99529.71;109685;1251;58920;-54
2023/09/19 03:26:26;;;;;;;13.70;12.00;;;;;;;19.38;51.66;99529.35;109598;1250;73265;-54
2023/09/19 03:28:53;;;;;;;20.60;13.20;;;;;;;19.31;52.09;99528.48;109602;1251;67914;-54
2023/09/19 03:31:20;;;;;;;19.00;13.40;;;;;;;19.34;52.26;99526.55;109621;1250;71168;-54
2023/09/19 03:33:47;;;;;;;18.60;13.00;;;;;;;19.61;51.50;99529.27;109727;1251;60374;-54
2023/09/19 03:36:14;;;;;;;19.00;13.70;;;;;;;19.71;51.07;99530.45;109740;1251;60149;-55
2023/09/19 03:38:41;;;;;;;22.80;13.40;;;;;;;19.66;51.18;99530.55;109744;1251;74517;-54
2023/09/19 03:41:08;;;;;;;16.40;11.80;;;;;;;19.74;50.89;99530.14;109630;1250;68775;-55
2023/09/19 03:43:35;;;;;;;16.30;12.00;;;;;;;19.60;51.31;99533.71;109611;1251;72492;-54
2023/09/19 03:46:06;;;;;;;19.00;12.00;;;;;;;19.52;51.65;99533.00;109279;1251;60493;-54
2023/09/19 03:48:33;;;;;;;18.00;13.10;;;;;;;19.52;51.82;99532.57;109611;1251;59973;-54
2023/09/19 03:51:00;;;;;;;20.70;13.20;;;;;;;19.56;51.89;99537.09;109605;1250;73275;-54
2023/09/19 03:53:27;;;;;;;15.90;12.80;;;;;;;19.59;51.83;99534.28;109755;1251;68677;-54
2023/09/19 03:55:53;;;;;;;25.50;13.00;;;;;;;19.59;51.89;99534.89;109737;1251;72439;-55
2023/09/19 03:58:20;;;;;;;20.60;13.30;;;;;;;19.55;52.03;99531.39;109563;1251;62256;-54
2023/09/19 04:00:48;;;;;;;27.40;12.80;;;;;;;19.59;52.06;99527.87;109751;1251;60116;-54
2023/09/19 04:03:20;;;;;;;26.40;13.40;;;;;;;19.54;52.46;99523.95;109719;1251;73168;-54
2023/09/19 04:05:50;;;;;;;25.80;13.00;;;;;;;19.73;51.94;99523.86;109490;1250;68600;-54
2023/09/19 04:08:16;;;;;;;23.20;13.40;;;;;;;19.84;51.56;99522.39;109700;1250;71343;-54
2023/09/19 04:10:43;;;;;;;23.20;12.60;;;;;;;19.89;51.59;99521.92;109697;1251;61749;-55
2023/09/19 04:13:10;;;;;;;26.70;13.10;;;;;;;20.03;51.19;99523.76;109289;1253;58959;-55
2023/09/19 04:15:37;;;;;;;26.90;14.50;;;;;;;20.14;50.90;99522.52;109531;1253;74408;-55
2023/09/19 04:18:04;;;;;;;43.30;16.30;;;;;;;20.16;50.89;99525.83;109328;1253;68564;-56
2023/09/19 04:20:31;;;;;;;27.50;15.10;;;;;;;20.28;50.58;99524.44;109591;1252;72462;-54
2023/09/19 04:22:59;;;;;;;30.00;15.40;;;;;;;20.26;50.80;99523.95;109545;1251;61800;-54
2023/09/19 04:25:27;;;;;;;28.50;14.20;;;;;;;20.37;50.70;99524.98;109600;1251;59986;-53
2023/09/19 04:27:55;;;;;;;25.00;12.80;;;;;;;20.64;50.17;99526.30;109600;1251;73345;-54
2023/09/19 04:30:22;;;;;;;24.60;15.10;;;;;;;21.09;49.12;99525.21;109634;1250;135355;-54
2023/09/19 04:32:50;;;;;;;31.50;13.50;;;;;;;21.35;48.52;99519.33;109462;1251;72790;-54
2023/09/19 04:35:17;;;;;;;34.90;13.50;;;;;;;21.59;47.74;99519.88;109662;1250;61619;-54
2023/09/19 04:37:44;;;;;;;25.00;12.50;;;;;;;21.87;47.02;99520.50;109752;1250;60201;-53
2023/09/19 04:40:12;;;;;;;17.40;11.40;;;;;;;22.04;46.56;99524.86;109735;1250;73479;-53
2023/09/19 04:42:40;;;;;;;21.20;11.50;;;;;;;22.15;46.26;99524.42;109756;1251;69040;-53
2023/09/19 04:45:09;;;;;;;20.90;12.30;;;;;;;22.37;45.68;99522.84;109709;1250;71729;-54
2023/09/19 04:47:39;;;;;;;19.40;11.30;;;;;;;22.62;45.20;99525.34;109307;1251;61646;-54
2023/09/19 04:50:08;;;;;;;30.00;12.10;;;;;;;22.71;44.97;99525.67;109731;1251;59026;-53
2023/09/19 04:52:35;;;;;;;22.70;11.60;;;;;;;22.84;44.53;99525.52;109696;1251;73310;-54
2023/09/19 04:55:02;;;;;;;25.90;11.90;;;;;;;22.94;44.38;99523.91;109743;1250;68496;-54
2023/09/19 04:57:29;;;;;;;22.50;10.80;;;;;;;22.94;44.16;99523.00;109577;1251;72664;-54
2023/09/19 04:59:56;;;;;;;17.90;10.50;;;;;;;23.12;43.76;99523.29;109736;1250;61641;-54
2023/09/19 05:02:22;;;;;;;25.90;11.10;;;;;;;23.36;43.43;99523.73;109728;1250;59068;-54
2023/09/19 05:04:49;;;;;;;41.30;12.10;;;;;;;23.68;42.94;99521.20;109764;1250;74632;-54
2023/09/19 05:07:17;;;;;;;27.20;12.40;;;;;;;23.82;42.40;99520.23;109722;1250;67376;-55
2023/09/19 05:09:43;;;;;;;24.00;11.50;;;;;;;24.05;42.36;99521.98;109756;1250;72443;-56
2023/09/19 05:12:10;;;;;;;25.60;10.60;;;;;;;24.27;42.02;99520.54;109628;1251;58900;-55
2023/09/19 05:14:37;;;;;;;29.00;11.10;;;;;;;24.45;41.65;99520.92;109553;1252;59417;-55
2023/09/19 05:17:04;;;;;;;16.30;11.00;;;;;;;24.47;41.61;99522.63;109376;1253;75219;-53
2023/09/19 05:19:30;;;;;;;25.70;9.90;;;;;;;24.34;41.98;99522.41;109571;1251;68659;-54
2023/09/19 05:21:57;;;;;;;23.30;10.00;;;;;;;24.80;41.40;99525.13;109658;1251;71300;-54
2023/09/19 05:24:26;;;;;;;21.40;9.90;;;;;;;24.76;41.15;99520.77;109697;1251;58940;-54
2023/09/19 05:26:53;;;;;;;37.30;10.80;;;;;;;24.56;41.56;99519.35;109724;1250;58991;-54
2023/09/19 05:29:19;;;;;;;26.60;10.40;;;;;;;24.34;42.10;99516.18;109731;1250;74665;-56
2023/09/19 05:31:46;;;;;;;25.00;10.50;;;;;;;24.43;41.99;99516.92;109755;1250;68500;-53
2023/09/19 05:34:13;;;;;;;23.40;9.70;;;;;;;24.73;41.73;99521.02;109549;1250;71351;-53
2023/09/19 05:36:40;;;;;;;14.00;9.30;;;;;;;25.02;41.06;99519.99;109564;1251;58994;-53
2023/09/19 05:39:09;;;;;;;17.40;9.00;;;;;;;24.85;41.32;99518.91;109727;1251;59002;-54
2023/09/19 05:41:36;;;;;;;15.70;9.20;;;;;;;24.85;41.37;99516.97;109817;1250;74603;-54
2023/09/19 05:44:03;;;;;;;18.90;8.90;;;;;;;24.75;41.80;99516.92;109573;1251;67818;-54
2023/09/19 05:46:30;;;;;;;12.70;9.30;;;;;;;24.65;41.91;99520.21;109445;1251;72396;-54
2023/09/19 05:48:57;;;;;;;19.60;10.50;;;;;;;24.91;41.51;99517.73;109689;1250;59167;-54
2023/09/19 05:51:25;;;;;;;16.60;9.10;;;;;;;25.50;40.81;99518.29;109576;1251;60382;-54
2023/09/19 05:53:54;;;;;;;14.60;8.60;;;;;;;25.16;41.04;99506.59;109713;1250;73157;-53
2023/09/19 05:56:22;;;;;;;10.50;8.10;;;;;;;24.96;41.68;99512.79;109731;1250;67305;-53
2023/09/19 05:58:49;;;;;;;20.00;9.60;;;;;;;24.86;41.94;99510.02;109555;1251;71682;-54
2023/09/19 06:01:16;;;;;;;17.80;8.90;;;;;;;25.02;41.77;99510.44;109741;1250;60131;-54
2023/09/19 06:03:43;;;;;;;17.40;9.30;;;;;;;25.23;41.50;99514.77;109725;1250;58987;-54
2023/09/19 06:06:10;;;;;;;23.90;9.30;;;;;;;25.44;41.41;99520.48;109450;1251;73209;-54
2023/09/19 06:08:37;;;;;;;14.30;6.60;;;;;;;26.22;40.25;99517.94;109723;1250;68412;-54
2023/09/19 06:11:09;;;;;;;13.80;8.90;;;;;;;26.01;40.37;99514.16;109673;1250;71318;-54
2023/09/19 06:13:35;;;;;;;12.20;8.30;;;;;;;25.60;40.97;99519.17;109396;1253;58988;-53
2023/09/19 06:16:05;;;;;;;11.30;6.40;;;;;;;26.17;40.33;99513.90;109561;1252;58968;-54
2023/09/19 06:18:33;;;;;;;14.10;8.20;;;;;;;26.26;40.21;99515.66;109618;1251;74786;-54
2023/09/19 06:21:00;;;;;;;10.60;8.10;;;;;;;26.63;39.65;99518.42;109564;1252;68261;-55
2023/09/19 06:23:28;;;;;;;16.30;9.90;;;;;;;26.68;39.57;99516.80;109670;1250;72217;-54
2023/09/19 06:25:56;;;;;;;13.00;8.80;;;;;;;26.74;39.60;99515.80;109748;1250;60155;-54
2023/09/19 06:28:24;;;;;;;14.60;8.00;;;;;;;27.12;38.89;99517.89;109461;1251;60057;-56
2023/09/19 06:30:50;;;;;;;10.70;6.30;;;;;;;27.38;38.59;99518.20;109769;1250;73491;-54
2023/09/19 06:33:18;;;;;;;11.10;7.50;;;;;;;27.31;38.88;99520.98;109619;1251;67295;-54
2023/09/19 06:35:47;;;;;;;13.20;7.70;;;;;;;27.45;38.45;99520.36;109748;1250;72492;-54
2023/09/19 06:38:15;;;;;;;10.20;7.50;;;;;;;27.25;38.58;99511.98;109719;1250;60031;-54
2023/09/19 06:40:42;;;;;;;7.90;6.50;;;;;;;27.09;39.07;99516.88;109774;1250;58957;-54
2023/09/19 06:43:10;;;;;;;17.30;8.20;;;;;;;27.42;38.54;99516.46;109693;1250;73216;-54
2023/09/19 06:45:36;;;;;;;15.50;7.60;;;;;;;27.36;38.67;99518.70;109565;1251;67128;-55
2023/09/19 06:48:04;;;;;;;15.30;7.30;;;;;;;27.70;38.24;99520.77;109729;1250;72491;-55
2023/09/19 06:50:32;;;;;;;7.40;5.50;;;;;;;27.92;37.90;99526.56;109686;1250;60134;-53
2023/09/19 06:53:00;;;;;;;12.10;7.70;;;;;;;27.80;37.67;99520.54;109745;1250;59484;-56
2023/09/19 06:55:31;;;;;;;15.20;9.40;;;;;;;27.62;38.09;99518.42;109384;1250;75231;-54
2023/09/19 06:57:58;;;;;;;12.80;8.50;;;;;;;27.68;38.39;99528.59;109732;1250;67386;-55
2023/09/19 07:00:25;;;;;;;9.40;5.50;;;;;;;28.14;37.26;99515.85;109738;1250;71459;-54
2023/09/19 07:03:00;;;;;;;11.60;6.90;;;;;;;27.66;37.89;99510.71;109583;1254;60145;-54
2023/09/19 07:05:27;;;;;;;18.20;10.80;;;;;;;27.68;37.84;99507.03;109723;1250;59546;-54
2023/09/19 07:07:55;;;;;;;10.70;6.90;;;;;;;28.21;37.30;99512.32;109767;1250;74519;-55
2023/09/19 07:10:23;;;;;;;13.60;8.00;;;;;;;28.03;37.18;99509.46;109751;1250;68880;-54
2023/09/19 07:13:00;;;;;;;8.20;6.70;;;;;;;28.27;36.89;99511.14;109632;1250;71457;-55
2023/09/19 07:15:27;;;;;;;11.70;8.70;;;;;;;28.49;36.52;99510.90;109509;1252;59001;-54
2023/09/19 07:17:54;;;;;;;17.40;8.90;;;;;;;28.59;36.36;99510.77;109606;1253;59136;-55
2023/09/19 07:20:21;;;;;;;11.50;6.90;;;;;;;28.98;35.76;99507.35;109624;1252;74876;-54
2023/09/19 07:22:51;;;;;;;13.70;7.40;;;;;;;29.12;35.73;99504.20;109610;1250;68503;-54
2023/09/19 07:25:18;;;;;;;16.00;7.20;;;;;;;28.86;35.32;99507.39;109760;1251;71296;-54
2023/09/19 07:27:45;;;;;;;11.30;7.20;;;;;;;28.80;35.41;99502.73;109697;1250;59147;-54
2023/09/19 07:30:12;;;;;;;9.30;6.10;;;;;;;29.20;35.14;99503.70;109733;1251;58824;-56
2023/09/19 07:32:40;;;;;;;10.00;5.80;;;;;;;29.70;34.17;99501.31;109746;1250;73981;-55
2023/09/19 07:35:07;;;;;;;10.80;7.30;;;;;;;29.20;34.38;99497.64;109724;1250;67568;-55
2023/09/19 07:37:34;;;;;;;13.00;6.40;;;;;;;28.91;34.49;99496.63;109686;1250;72763;-55
2023/09/19 07:40:11;;;;;;;7.30;5.50;;;;;;;29.01;34.09;99499.64;109712;1250;60474;-55
2023/09/19 07:42:40;;;;;;;16.40;8.10;;;;;;;28.70;34.47;99493.56;109774;1250;59127;-56
2023/09/19 07:45:14;;;;;;;9.50;6.20;;;;;;;29.15;33.89;99491.59;109591;1251;74581;-54
2023/09/19 07:47:45;;;;;;;16.70;5.60;;;;;;;29.12;33.89;99487.45;109757;1250;68739;-54
2023/09/19 07:50:12;;;;;;;9.30;6.40;;;;;;;29.60;32.96;99479.73;109748;1250;72543;-55
2023/09/19 07:52:39;;;;;;;11.10;6.60;;;;;;;29.89;32.62;99483.13;109724;1250;58984;-55
2023/09/19 07:55:11;;;;;;;12.60;5.60;;;;;;;30.20;31.88;99474.20;109747;1250;60462;-54
2023/09/19 07:57:37;;;;;;;9.20;6.30;;;;;;;29.89;31.84;99471.89;109743;1250;73951;-54
2023/09/19 08:00:06;;;;;;;6.30;5.10;;;;;;;30.33;31.23;99472.36;109768;1250;68519;-54
2023/09/19 08:02:38;;;;;;;11.30;5.50;;;;;;;30.21;31.33;99462.50;109743;1250;73170;-54
2023/09/19 08:05:11;;;;;;;10.60;5.30;;;;;;;30.68;31.17;99467.83;109710;1250;60183;-55
2023/09/19 08:07:39;;;;;;;5.90;4.90;;;;;;;31.03;30.67;99461.82;109784;1250;59458;-54
2023/09/19 08:10:07;;;;;;;10.40;4.50;;;;;;;31.04;30.63;99460.00;109728;1250;74580;-54
2023/09/19 08:12:35;;;;;;;7.80;5.20;;;;;;;30.79;30.47;99451.40;109695;1250;68766;-54
2023/09/19 08:15:05;;;;;;;6.00;5.10;;;;;;;30.53;31.04;99443.81;109522;1252;72403;-55
2023/09/19 08:17:35;;;;;;;9.70;4.30;;;;;;;30.81;30.26;99442.30;109535;1251;59500;-54
2023/09/19 08:20:05;;;;;;;5.60;4.00;;;;;;;30.67;30.17;99445.42;109608;1252;60261;-54
2023/09/19 08:22:32;;;;;;;11.30;4.90;;;;;;;30.42;29.92;99436.32;109580;1250;74665;-54
2023/09/19 08:24:59;;;;;;;16.30;4.40;;;;;;;30.23;29.68;99427.48;109736;1250;69021;-55
2023/09/19 08:27:28;;;;;;;11.10;3.30;;;;;;;30.17;28.70;99431.02;109660;1250;73830;-55
2023/09/19 08:29:55;;;;;;;11.50;5.30;;;;;;;30.10;28.47;99427.34;109732;1250;60011;-55
2023/09/19 08:32:24;;;;;;;11.30;4.20;;;;;;;30.14;28.39;99422.69;109458;1251;60100;-54
2023/09/19 08:34:51;;;;;;;15.10;4.80;;;;;;;30.10;28.00;99428.27;109714;1250;74237;-55
2023/09/19 08:37:18;;;;;;;12.50;4.10;;;;;;;30.79;26.86;99430.91;109734;1250;67780;-55
2023/09/19 08:39:46;;;;;;;8.60;3.60;;;;;;;31.21;25.18;99431.81;109722;1251;71418;-55
2023/09/19 08:42:13;;;;;;;10.30;3.00;;;;;;;30.84;24.60;99439.70;109670;1250;60284;-55
2023/09/19 08:44:40;;;;;;;7.40;3.70;;;;;;;30.75;24.23;99432.32;109672;1250;59158;-54
2023/09/19 08:47:11;;;;;;;6.80;3.20;;;;;;;30.42;24.70;99431.98;109801;1250;74465;-54
2023/09/19 08:49:48;;;;;;;10.70;4.10;;;;;;;30.25;24.84;99424.15;109804;1250;67271;-56
2023/09/19 08:52:35;;;;;;;4.50;3.80;;;;;;;30.52;25.17;99430.11;109706;1250;72462;-55
2023/09/19 08:55:04;;;;;;;10.00;3.60;;;;;;;31.02;23.89;99422.29;109679;1250;60282;-54
2023/09/19 08:57:35;;;;;;;11.70;3.50;;;;;;;30.84;23.14;99428.77;109751;1250;59564;-55
2023/09/19 09:00:09;;;;;;;5.30;2.80;;;;;;;30.60;22.93;99432.51;109641;1250;73580;-54
2023/09/19 09:02:40;;;;;;;10.00;2.40;;;;;;;30.87;22.67;99432.81;109757;1250;68091;-54
2023/09/19 09:05:14;;;;;;;3.40;2.90;;;;;;;31.27;21.97;99431.42;109698;1250;72742;-55
2023/09/19 09:07:40;;;;;;;6.70;3.00;;;;;;;31.34;21.98;99430.61;109742;1250;60120;-54
2023/09/19 09:10:08;;;;;;;5.70;3.40;;;;;;;31.31;21.34;99432.23;109714;1250;60250;-55
2023/09/19 09:12:36;;;;;;;4.70;3.20;;;;;;;31.13;21.42;99428.02;109700;1250;65949;-54
2023/09/19 09:15:03;;;;;;;7.10;3.60;;;;;;;31.22;21.43;99424.21;109534;1252;68171;-55
2023/09/19 09:17:30;;;;;;;;;;;;;;;31.48;21.06;99421.90;109616;1252;72525;-54
2023/09/19 09:19:57;;;;;;;7.00;4.10;;;;;;;31.31;20.67;99422.47;109590;1252;60140;-56
2023/09/19 09:22:24;;;;;;;8.20;4.00;;;;;;;30.98;21.01;99415.56;109471;1250;60544;-55
2023/09/19 09:24:53;;;;;;;20.60;5.40;;;;;;;30.90;21.10;99425.77;109598;1250;73476;-54
2023/09/19 09:27:20;;;;;;;17.10;4.30;;;;;;;30.54;20.94;99417.93;109700;1250;67278;-54
2023/09/19 09:29:50;;;;;;;14.00;5.00;;;;;;;30.54;20.94;99422.42;109711;1250;72904;-54
2023/09/19 09:32:24;;;;;;;21.20;7.30;;;;;;;30.97;20.90;99419.13;109655;1250;60047;-54
2023/09/19 09:34:53;;;;;;;7.70;4.60;;;;;;;31.04;20.83;99424.13;109728;1250;60344;-54
2023/09/19 09:37:21;;;;;;;16.10;6.20;;;;;;;30.57;21.38;99415.97;109741;1250;74472;-53
2023/09/19 09:39:51;;;;;;;13.30;8.90;;;;;;;30.41;21.78;99402.94;109358;1251;67874;-53
2023/09/19 09:42:39;;;;;;;14.00;10.00;;;;;;;31.11;21.67;99421.92;109703;1250;72574;-55
2023/09/19 09:45:36;;;;;;;8.60;5.20;;;;;;;31.07;21.99;99412.58;109655;1250;60200;-54
2023/09/19 09:48:13;;;;;;;5.50;3.30;;;;;;;30.68;22.46;99414.25;109519;1251;60301;-54
2023/09/19 09:50:56;;;;;;;7.30;4.70;;;;;;;31.01;22.62;99411.84;109406;1254;74721;-54
2023/09/19 09:53:33;;;;;;;12.30;4.90;;;;;;;31.27;22.10;99414.00;109197;1255;69373;-54
2023/09/19 09:56:07;;;;;;;17.50;5.50;;;;;;;31.40;21.96;99412.95;109283;1255;73354;-54
2023/09/19 09:58:52;;;;;;;8.70;6.60;;;;;;;31.98;21.78;99417.98;109379;1254;59232;-56
2023/09/19 10:01:20;;;;;;;12.70;8.20;;;;;;;31.05;22.32;99415.11;109375;1254;58945;-55
2023/09/19 10:03:51;;;;;;;15.30;7.60;;;;;;;30.76;22.69;99404.62;109186;1254;74746;-54
2023/09/19 10:09:27;;;;;;;19.10;11.60;;;;;;;31.47;22.42;99416.45;109384;1254;72500;-55
2023/09/19 10:12:03;;;;;;;16.10;10.10;;;;;;;31.55;22.48;99409.08;109357;1254;60548;-54
2023/09/19 10:14:34;;;;;;;16.50;8.80;;;;;;;31.39;22.75;99404.55;109195;1254;58934;-55
2023/09/19 10:17:03;;;;;;;18.50;8.20;;;;;;;31.71;22.38;99404.05;109381;1256;64826;-55
2023/09/19 10:19:36;;;;;;;16.10;8.30;;;;;;;31.65;22.21;99401.44;109159;1254;68832;-56
2023/09/19 10:22:05;;;;;;;13.70;8.20;;;;;;;31.57;22.24;99394.40;109523;1252;71746;-54
2023/09/19 10:24:33;;;;;;;8.00;5.00;;;;;;;31.50;22.56;99397.27;109562;1251;59416;-56
2023/09/19 10:27:03;;;;;;;17.20;6.40;;;;;;;31.12;22.27;99394.36;109553;1251;60271;-56
2023/09/19 10:29:32;;;;;;;14.80;7.40;;;;;;;30.94;22.73;99404.00;109525;1251;74718;-53
2023/09/19 10:31:59;;;;;;;15.90;5.80;;;;;;;31.18;22.57;99397.92;109578;1252;68538;-54
2023/09/19 10:34:26;;;;;;;10.50;6.30;;;;;;;31.17;22.77;99402.98;109546;1251;72445;-54
2023/09/19 10:36:53;;;;;;;12.00;8.50;;;;;;;31.61;22.45;99397.88;109572;1252;59226;-54
2023/09/19 10:39:20;;;;;;;11.00;6.10;;;;;;;31.98;22.40;99391.37;109373;1253;59000;-54
2023/09/19 10:41:53;;;;;;;15.20;4.80;;;;;;;32.10;22.60;99385.29;109535;1252;64775;-55
2023/09/19 10:44:26;;;;;;;13.50;4.60;;;;;;;31.97;22.67;99372.91;109583;1252;60215;-53
2023/09/19 10:46:53;;;;;;;9.20;3.60;;;;;;;31.32;23.18;99383.17;109571;1252;72418;-53
2023/09/19 10:49:21;;;;;;;7.20;3.50;;;;;;;31.38;23.22;99375.02;109525;1251;60074;-54
2023/09/19 10:51:50;;;;;;;14.60;5.90;;;;;;;31.24;23.17;99385.48;109567;1251;59035;-55
2023/09/19 10:54:18;;;;;;;10.30;6.50;;;;;;;31.25;22.94;99371.69;109383;1252;73205;-53
2023/09/19 10:56:49;;;;;;;13.70;5.40;;;;;;;31.58;23.24;99362.45;109553;1253;67282;-56
2023/09/19 10:59:18;;;;;;;14.30;6.90;;;;;;;31.75;23.26;99366.61;109564;1252;72897;-57
2023/09/19 11:01:58;;;;;;;12.80;4.00;;;;;;;32.21;23.04;99370.17;109497;1251;58988;-54
2023/09/19 11:04:35;;;;;;;8.80;5.30;;;;;;;31.71;23.33;99362.19;109590;1253;60505;-55
2023/09/19 11:07:14;;;;;;;11.20;4.80;;;;;;;31.37;23.58;99354.02;109599;1252;74554;-55
2023/09/19 11:10:03;;;;;;;6.40;4.60;;;;;;;31.62;23.55;99346.20;109602;1252;68934;-54
2023/09/19 11:12:40;;;;;;;9.80;4.80;;;;;;;32.07;23.15;99342.08;109550;1252;71426;-54
2023/09/19 11:15:08;;;;;;;6.00;4.30;;;;;;;31.82;22.81;99356.52;109432;1254;60697;-54
2023/09/19 11:17:41;;;;;;;6.50;3.70;;;;;;;31.56;22.80;99340.52;109578;1252;60278;-54
2023/09/19 11:22:56;;;;;;;20.50;4.90;;;;;;;31.01;23.90;99332.35;109630;1250;68552;-54
2023/09/19 11:25:47;;;;;;;7.70;3.60;;;;;;;31.67;23.53;99337.23;109718;1250;72686;-54
2023/09/19 11:28:18;;;;;;;8.10;2.90;;;;;;;31.88;23.17;99338.51;109730;1251;58902;-54
2023/09/19 11:30:45;;;;;;;14.80;4.10;;;;;;;31.55;23.38;99331.71;109730;1251;59000;-55
2023/09/19 11:33:20;;;;;;;16.30;4.70;;;;;;;31.77;23.00;99338.23;109736;1251;74920;-54